RYR7091 LATI-LICA
Flight info
| Callsign | RYR7091 |
|---|---|
| Flight time | 0h 46m |
| Altitude | 31000 |
| Route | DIRES DCT PAPIZ DCT ABADI DCT ALIXI DCT CRN |
| Aircraft | B738/M-SDE2E3FGHIRWXY/LB1 |
Departure
| Time | 2026-04-25 14:50 |
|---|---|
| Airport | Tirana International Airport Mother Teresa (LATI) |
Arrival
| Time | 2026-04-25 15:36 |
|---|---|
| Airport | Lamezia Terme Sant'Eufemia International Airport (LICA) |
| Time | Latitude | Longitude | Altitude | Speed | Heading |
|---|---|---|---|---|---|
| 2026-04-25 14:31 | 41.42028 | 19.71496 | 131 ft | 0 kts | 265° |
| 2026-04-25 14:40 | 41.42028 | 19.71497 | 131 ft | 2 kts | 265° |
| 2026-04-25 14:40 | 41.42033 | 19.71530 | 126 ft | 4 kts | 246° |
| 2026-04-25 14:41 | 41.42047 | 19.71556 | 128 ft | 4 kts | 201° |
| 2026-04-25 14:41 | 41.42058 | 19.71560 | 125 ft | 0 kts | 174° |
| 2026-04-25 14:43 | 41.42055 | 19.71560 | 125 ft | 2 kts | 174° |
| 2026-04-25 14:43 | 41.42024 | 19.71564 | 126 ft | 8 kts | 174° |
| 2026-04-25 14:44 | 41.41949 | 19.71574 | 129 ft | 14 kts | 174° |
| 2026-04-25 14:44 | 41.41832 | 19.71589 | 127 ft | 20 kts | 174° |
| 2026-04-25 14:44 | 41.41692 | 19.71608 | 128 ft | 20 kts | 174° |
| 2026-04-25 14:44 | 41.41555 | 19.71626 | 129 ft | 20 kts | 174° |
| 2026-04-25 14:45 | 41.41421 | 19.71642 | 128 ft | 19 kts | 175° |
| 2026-04-25 14:45 | 41.41292 | 19.71657 | 128 ft | 18 kts | 175° |
| 2026-04-25 14:45 | 41.41168 | 19.71677 | 126 ft | 18 kts | 174° |
| 2026-04-25 14:45 | 41.41048 | 19.71693 | 128 ft | 17 kts | 174° |
| 2026-04-25 14:46 | 41.40932 | 19.71709 | 130 ft | 16 kts | 173° |
| 2026-04-25 14:46 | 41.40818 | 19.71736 | 129 ft | 18 kts | 169° |
| 2026-04-25 14:46 | 41.40684 | 19.71762 | 129 ft | 21 kts | 175° |
| 2026-04-25 14:46 | 41.40529 | 19.71781 | 131 ft | 23 kts | 174° |
| 2026-04-25 14:47 | 41.40400 | 19.71807 | 131 ft | 15 kts | 153° |
| 2026-04-25 14:47 | 41.40372 | 19.71829 | 129 ft | 15 kts | 146° |
| 2026-04-25 14:47 | 41.40249 | 19.71957 | 128 ft | 11 kts | 129° |
| 2026-04-25 14:47 | 41.40237 | 19.72050 | 129 ft | 10 kts | 83° |
| 2026-04-25 14:48 | 41.40239 | 19.72073 | 130 ft | 0 kts | 82° |
| 2026-04-25 14:48 | 41.40240 | 19.72082 | 131 ft | 3 kts | 82° |
| 2026-04-25 14:48 | 41.40245 | 19.72130 | 129 ft | 8 kts | 81° |
| 2026-04-25 14:49 | 41.40271 | 19.72204 | 129 ft | 10 kts | 27° |
| 2026-04-25 14:49 | 41.40358 | 19.72205 | 127 ft | 15 kts | 352° |
| 2026-04-25 14:49 | 41.40564 | 19.72175 | 132 ft | 58 kts | 354° |
| 2026-04-25 14:49 | 41.41203 | 19.72090 | 126 ft | 124 kts | 354° |
| 2026-04-25 14:50 | 41.42234 | 19.71953 | 271 ft | 164 kts | 353° |
| 2026-04-25 14:50 | 41.43364 | 19.71782 | 1016 ft | 167 kts | 351° |
| 2026-04-25 14:50 | 41.44514 | 19.71571 | 1777 ft | 170 kts | 348° |
| 2026-04-25 14:50 | 41.45799 | 19.71386 | 2053 ft | 200 kts | 352° |
| 2026-04-25 14:51 | 41.47271 | 19.71211 | 2317 ft | 220 kts | 353° |
| 2026-04-25 14:51 | 41.48840 | 19.71025 | 2812 ft | 230 kts | 354° |
| 2026-04-25 14:51 | 41.49972 | 19.70890 | 3193 ft | 235 kts | 354° |
| 2026-04-25 14:51 | 41.51630 | 19.70686 | 3767 ft | 241 kts | 354° |
| 2026-04-25 14:52 | 41.53338 | 19.70468 | 4134 ft | 256 kts | 354° |
| 2026-04-25 14:52 | 41.55137 | 19.70234 | 4650 ft | 268 kts | 355° |
| 2026-04-25 14:52 | 41.57010 | 19.69987 | 5401 ft | 272 kts | 355° |
| 2026-04-25 14:52 | 41.58289 | 19.69818 | 5935 ft | 274 kts | 355° |
| 2026-04-25 14:53 | 41.60823 | 19.69385 | 6912 ft | 281 kts | 344° |
| 2026-04-25 14:53 | 41.62484 | 19.68039 | 7709 ft | 284 kts | 314° |
| 2026-04-25 14:53 | 41.63480 | 19.65783 | 8534 ft | 286 kts | 287° |
| 2026-04-25 14:53 | 41.63633 | 19.63140 | 9337 ft | 290 kts | 262° |
| 2026-04-25 14:54 | 41.62910 | 19.60625 | 10081 ft | 295 kts | 236° |
| 2026-04-25 14:54 | 41.61423 | 19.58647 | 10423 ft | 315 kts | 212° |
| 2026-04-25 14:54 | 41.59330 | 19.57506 | 10594 ft | 338 kts | 192° |
| 2026-04-25 14:54 | 41.56919 | 19.57338 | 10821 ft | 357 kts | 175° |
| 2026-04-25 14:55 | 41.54429 | 19.57702 | 11403 ft | 362 kts | 172° |
| 2026-04-25 14:55 | 41.51921 | 19.58156 | 12029 ft | 368 kts | 172° |
| 2026-04-25 14:55 | 41.49370 | 19.58578 | 12691 ft | 371 kts | 173° |
| 2026-04-25 14:55 | 41.46790 | 19.58946 | 13349 ft | 376 kts | 174° |
| 2026-04-25 14:56 | 41.44174 | 19.59271 | 14048 ft | 377 kts | 175° |
| 2026-04-25 14:56 | 41.41563 | 19.59568 | 14839 ft | 377 kts | 175° |
| 2026-04-25 14:56 | 41.38917 | 19.59857 | 15388 ft | 385 kts | 175° |
| 2026-04-25 14:56 | 41.36238 | 19.60146 | 16079 ft | 387 kts | 175° |
| 2026-04-25 14:57 | 41.33554 | 19.60438 | 16827 ft | 388 kts | 175° |
| 2026-04-25 14:57 | 41.30840 | 19.60626 | 17367 ft | 395 kts | 184° |
| 2026-04-25 14:57 | 41.28172 | 19.59716 | 17912 ft | 399 kts | 207° |
| 2026-04-25 14:57 | 41.25881 | 19.57648 | 18549 ft | 400 kts | 225° |
| 2026-04-25 14:58 | 41.24154 | 19.54761 | 19112 ft | 401 kts | 236° |
| 2026-04-25 14:58 | 41.22580 | 19.51696 | 19687 ft | 403 kts | 237° |
| 2026-04-25 14:58 | 41.21006 | 19.48583 | 20192 ft | 408 kts | 237° |
| 2026-04-25 14:58 | 41.19412 | 19.45444 | 20688 ft | 412 kts | 237° |
| 2026-04-25 14:59 | 41.17798 | 19.42295 | 21291 ft | 413 kts | 237° |
| 2026-04-25 14:59 | 41.16170 | 19.39148 | 21856 ft | 415 kts | 236° |
| 2026-04-25 14:59 | 41.14521 | 19.35980 | 22339 ft | 419 kts | 236° |
| 2026-04-25 14:59 | 41.12855 | 19.32786 | 22815 ft | 423 kts | 236° |
| 2026-04-25 15:00 | 41.11174 | 19.29570 | 23308 ft | 426 kts | 236° |
| 2026-04-25 15:00 | 41.09500 | 19.26370 | 23752 ft | 429 kts | 236° |
| 2026-04-25 15:00 | 41.07793 | 19.23110 | 24151 ft | 432 kts | 236° |
| 2026-04-25 15:00 | 41.06069 | 19.19825 | 24545 ft | 435 kts | 236° |
| 2026-04-25 15:01 | 41.04206 | 19.16646 | 24935 ft | 439 kts | 230° |
| 2026-04-25 15:01 | 41.02144 | 19.13650 | 25330 ft | 442 kts | 227° |
| 2026-04-25 15:01 | 41.00015 | 19.10699 | 25714 ft | 444 kts | 227° |
| 2026-04-25 15:01 | 40.97881 | 19.07727 | 26081 ft | 447 kts | 227° |
| 2026-04-25 15:02 | 40.95754 | 19.04706 | 26428 ft | 450 kts | 227° |
| 2026-04-25 15:02 | 40.93632 | 19.01641 | 26786 ft | 453 kts | 228° |
| 2026-04-25 15:02 | 40.91506 | 18.98556 | 27142 ft | 455 kts | 228° |
| 2026-04-25 15:02 | 40.89374 | 18.95369 | 27488 ft | 458 kts | 232° |
| 2026-04-25 15:03 | 40.87608 | 18.91930 | 27812 ft | 460 kts | 240° |
| 2026-04-25 15:03 | 40.86018 | 18.88255 | 28160 ft | 462 kts | 241° |
| 2026-04-25 15:03 | 40.84441 | 18.84550 | 28529 ft | 463 kts | 241° |
| 2026-04-25 15:03 | 40.82852 | 18.80853 | 28973 ft | 463 kts | 240° |
| 2026-04-25 15:04 | 40.81245 | 18.77172 | 29418 ft | 462 kts | 240° |
| 2026-04-25 15:04 | 40.79630 | 18.73512 | 29925 ft | 460 kts | 240° |
| 2026-04-25 15:04 | 40.78016 | 18.69874 | 30365 ft | 459 kts | 240° |
| 2026-04-25 15:04 | 40.76302 | 18.66322 | 30699 ft | 460 kts | 232° |
| 2026-04-25 15:05 | 40.74193 | 18.63151 | 31005 ft | 460 kts | 224° |
| 2026-04-25 15:05 | 40.71738 | 18.60424 | 31016 ft | 464 kts | 215° |
| 2026-04-25 15:06 | 40.63830 | 18.53148 | 31028 ft | 459 kts | 214° |
| 2026-04-25 15:06 | 40.58596 | 18.48332 | 31046 ft | 459 kts | 214° |
| 2026-04-25 15:07 | 40.53378 | 18.43475 | 31042 ft | 460 kts | 214° |
| 2026-04-25 15:07 | 40.48167 | 18.38606 | 31038 ft | 460 kts | 214° |
| 2026-04-25 15:08 | 40.42952 | 18.33741 | 31032 ft | 460 kts | 214° |
| 2026-04-25 15:08 | 40.37775 | 18.28923 | 31028 ft | 459 kts | 214° |
| 2026-04-25 15:09 | 40.32560 | 18.24080 | 31020 ft | 459 kts | 214° |
| 2026-04-25 15:09 | 40.24732 | 18.16829 | 31021 ft | 460 kts | 214° |
| 2026-04-25 15:10 | 40.19515 | 18.12008 | 31013 ft | 455 kts | 214° |
| 2026-04-25 15:10 | 40.14507 | 18.07385 | 30991 ft | 423 kts | 214° |
| 2026-04-25 15:11 | 40.12146 | 18.05208 | 30948 ft | 411 kts | 214° |
| 2026-04-25 15:11 | 40.09796 | 18.03045 | 30166 ft | 419 kts | 214° |
| 2026-04-25 15:11 | 40.07368 | 18.00816 | 29118 ft | 431 kts | 214° |
| 2026-04-25 15:12 | 40.02452 | 17.96305 | 27944 ft | 430 kts | 214° |
| 2026-04-25 15:12 | 40.00013 | 17.94069 | 27491 ft | 426 kts | 214° |
| 2026-04-25 15:12 | 39.97600 | 17.91857 | 27047 ft | 423 kts | 214° |
| 2026-04-25 15:12 | 39.96788 | 17.91113 | 26897 ft | 421 kts | 214° |
| 2026-04-25 15:13 | 39.92832 | 17.87493 | 26201 ft | 415 kts | 214° |
| 2026-04-25 15:13 | 39.88139 | 17.83206 | 25358 ft | 409 kts | 214° |
| 2026-04-25 15:13 | 39.85817 | 17.81088 | 24948 ft | 406 kts | 214° |
| 2026-04-25 15:14 | 39.83510 | 17.78985 | 24535 ft | 403 kts | 214° |
| 2026-04-25 15:14 | 39.81219 | 17.76898 | 24128 ft | 401 kts | 214° |
| 2026-04-25 15:14 | 39.78940 | 17.74824 | 23715 ft | 399 kts | 214° |
| 2026-04-25 15:14 | 39.76674 | 17.72764 | 23230 ft | 397 kts | 214° |
| 2026-04-25 15:15 | 39.74420 | 17.70716 | 22794 ft | 394 kts | 214° |
| 2026-04-25 15:15 | 39.72183 | 17.68685 | 22364 ft | 391 kts | 214° |
| 2026-04-25 15:15 | 39.69965 | 17.66673 | 21955 ft | 387 kts | 214° |
| 2026-04-25 15:15 | 39.67764 | 17.64677 | 21548 ft | 384 kts | 214° |
| 2026-04-25 15:16 | 39.65580 | 17.62699 | 21146 ft | 381 kts | 214° |
| 2026-04-25 15:16 | 39.63412 | 17.60736 | 20755 ft | 379 kts | 214° |
| 2026-04-25 15:16 | 39.59118 | 17.56853 | 19969 ft | 374 kts | 214° |
| 2026-04-25 15:17 | 39.54869 | 17.53017 | 19207 ft | 370 kts | 214° |
| 2026-04-25 15:17 | 39.52758 | 17.51112 | 18804 ft | 369 kts | 214° |
| 2026-04-25 15:17 | 39.50654 | 17.49215 | 18415 ft | 368 kts | 214° |
| 2026-04-25 15:18 | 39.48552 | 17.47322 | 17971 ft | 367 kts | 214° |
| 2026-04-25 15:18 | 39.44373 | 17.43593 | 17187 ft | 362 kts | 212° |
| 2026-04-25 15:18 | 39.42255 | 17.41863 | 16844 ft | 358 kts | 211° |
| 2026-04-25 15:19 | 39.40133 | 17.40196 | 16467 ft | 356 kts | 210° |
| 2026-04-25 15:19 | 39.39448 | 17.39662 | 16339 ft | 355 kts | 210° |
| 2026-04-25 15:19 | 39.35920 | 17.36910 | 15719 ft | 351 kts | 210° |
| 2026-04-25 15:19 | 39.33836 | 17.35275 | 15350 ft | 350 kts | 211° |
| 2026-04-25 15:20 | 39.32465 | 17.34196 | 15110 ft | 348 kts | 211° |
| 2026-04-25 15:20 | 39.29732 | 17.32041 | 14628 ft | 346 kts | 211° |
| 2026-04-25 15:20 | 39.27682 | 17.30421 | 14267 ft | 345 kts | 211° |
| 2026-04-25 15:20 | 39.25637 | 17.28805 | 13878 ft | 344 kts | 211° |
| 2026-04-25 15:21 | 39.23601 | 17.27196 | 13468 ft | 343 kts | 211° |
| 2026-04-25 15:21 | 39.21571 | 17.25594 | 13062 ft | 341 kts | 211° |
| 2026-04-25 15:21 | 39.19554 | 17.24002 | 12688 ft | 339 kts | 211° |
| 2026-04-25 15:21 | 39.17550 | 17.22422 | 12321 ft | 337 kts | 211° |
| 2026-04-25 15:22 | 39.15558 | 17.20851 | 11937 ft | 335 kts | 211° |
| 2026-04-25 15:22 | 39.13573 | 17.19287 | 11583 ft | 333 kts | 211° |
| 2026-04-25 15:22 | 39.11603 | 17.17736 | 11220 ft | 331 kts | 211° |
| 2026-04-25 15:22 | 39.09640 | 17.16191 | 10862 ft | 330 kts | 211° |
| 2026-04-25 15:23 | 39.07689 | 17.14656 | 10546 ft | 327 kts | 211° |
| 2026-04-25 15:23 | 39.05776 | 17.13151 | 10417 ft | 318 kts | 212° |
| 2026-04-25 15:23 | 39.03912 | 17.11688 | 10257 ft | 310 kts | 212° |
| 2026-04-25 15:23 | 39.02090 | 17.10260 | 10128 ft | 303 kts | 212° |
| 2026-04-25 15:24 | 39.00338 | 17.08833 | 10049 ft | 295 kts | 220° |
| 2026-04-25 15:24 | 38.99084 | 17.06830 | 10065 ft | 284 kts | 244° |
| 2026-04-25 15:24 | 38.98256 | 17.04576 | 10032 ft | 273 kts | 249° |
| 2026-04-25 15:24 | 38.98016 | 17.03854 | 10032 ft | 269 kts | 249° |
| 2026-04-25 15:25 | 38.96862 | 17.00275 | 10027 ft | 251 kts | 250° |
| 2026-04-25 15:25 | 38.96200 | 16.98221 | 10036 ft | 248 kts | 249° |
| 2026-04-25 15:25 | 38.95586 | 16.96130 | 9866 ft | 254 kts | 251° |
| 2026-04-25 15:25 | 38.94910 | 16.93994 | 9175 ft | 270 kts | 248° |
| 2026-04-25 15:26 | 38.94143 | 16.91730 | 8501 ft | 280 kts | 248° |
| 2026-04-25 15:26 | 38.93361 | 16.89437 | 8063 ft | 280 kts | 248° |
| 2026-04-25 15:26 | 38.92587 | 16.87158 | 7726 ft | 277 kts | 248° |
| 2026-04-25 15:26 | 38.91825 | 16.84904 | 7367 ft | 274 kts | 249° |
| 2026-04-25 15:27 | 38.91072 | 16.82666 | 7004 ft | 271 kts | 249° |
| 2026-04-25 15:27 | 38.90332 | 16.80458 | 6738 ft | 264 kts | 249° |
| 2026-04-25 15:27 | 38.88954 | 16.76343 | 6548 ft | 239 kts | 249° |
| 2026-04-25 15:28 | 38.88306 | 16.74407 | 6299 ft | 234 kts | 249° |
| 2026-04-25 15:28 | 38.87669 | 16.72502 | 5947 ft | 231 kts | 249° |
| 2026-04-25 15:28 | 38.87039 | 16.70623 | 5586 ft | 225 kts | 249° |
| 2026-04-25 15:28 | 38.86426 | 16.68795 | 5167 ft | 221 kts | 248° |
| 2026-04-25 15:29 | 38.85830 | 16.66990 | 4745 ft | 218 kts | 251° |
| 2026-04-25 15:29 | 38.85734 | 16.65106 | 4278 ft | 213 kts | 284° |
| 2026-04-25 15:29 | 38.86103 | 16.63298 | 3864 ft | 208 kts | 280° |
| 2026-04-25 15:29 | 38.86319 | 16.61518 | 3742 ft | 190 kts | 277° |
| 2026-04-25 15:30 | 38.86380 | 16.60965 | 3741 ft | 181 kts | 277° |
| 2026-04-25 15:30 | 38.86661 | 16.58382 | 3820 ft | 175 kts | 278° |
| 2026-04-25 15:30 | 38.86832 | 16.56851 | 3843 ft | 172 kts | 277° |
| 2026-04-25 15:30 | 38.87000 | 16.55336 | 3834 ft | 171 kts | 277° |
| 2026-04-25 15:31 | 38.87168 | 16.53838 | 3842 ft | 169 kts | 277° |
| 2026-04-25 15:31 | 38.87337 | 16.52344 | 3847 ft | 169 kts | 277° |
| 2026-04-25 15:31 | 38.87506 | 16.50845 | 3825 ft | 171 kts | 277° |
| 2026-04-25 15:31 | 38.87679 | 16.49316 | 3597 ft | 171 kts | 277° |
| 2026-04-25 15:32 | 38.87847 | 16.47837 | 3385 ft | 167 kts | 276° |
| 2026-04-25 15:32 | 38.88013 | 16.46357 | 3142 ft | 167 kts | 276° |
| 2026-04-25 15:32 | 38.88179 | 16.44896 | 2924 ft | 165 kts | 276° |
| 2026-04-25 15:33 | 38.88506 | 16.42023 | 2533 ft | 153 kts | 275° |
| 2026-04-25 15:33 | 38.88656 | 16.40705 | 2330 ft | 146 kts | 277° |
| 2026-04-25 15:33 | 38.88804 | 16.39403 | 2138 ft | 150 kts | 276° |
| 2026-04-25 15:33 | 38.88953 | 16.38083 | 1938 ft | 153 kts | 277° |
| 2026-04-25 15:34 | 38.89107 | 16.36738 | 1742 ft | 153 kts | 276° |
| 2026-04-25 15:34 | 38.89260 | 16.35401 | 1537 ft | 151 kts | 276° |
| 2026-04-25 15:34 | 38.89411 | 16.34078 | 1290 ft | 147 kts | 277° |
| 2026-04-25 15:34 | 38.89461 | 16.33640 | 1233 ft | 146 kts | 277° |
| 2026-04-25 15:35 | 38.89851 | 16.30221 | 718 ft | 146 kts | 277° |
| 2026-04-25 15:35 | 38.89992 | 16.28931 | 531 ft | 146 kts | 276° |
| 2026-04-25 15:35 | 38.90147 | 16.27641 | 357 ft | 148 kts | 276° |
| 2026-04-25 15:36 | 38.90441 | 16.25047 | 35 ft | 136 kts | 278° |
| 2026-04-25 15:36 | 38.90551 | 16.24122 | 27 ft | 73 kts | 279° |
| 2026-04-25 15:36 | 38.90621 | 16.23671 | 32 ft | 29 kts | 296° |
| 2026-04-25 15:37 | 38.90720 | 16.23508 | 33 ft | 12 kts | 316° |
| 2026-04-25 15:37 | 38.90793 | 16.23478 | 31 ft | 12 kts | 14° |
| 2026-04-25 15:37 | 38.90838 | 16.23555 | 31 ft | 11 kts | 84° |
| 2026-04-25 15:37 | 38.90831 | 16.23655 | 31 ft | 11 kts | 97° |
| 2026-04-25 15:38 | 38.90820 | 16.23751 | 31 ft | 11 kts | 98° |
| 2026-04-25 15:38 | 38.90809 | 16.23845 | 29 ft | 10 kts | 98° |
| 2026-04-25 15:38 | 38.90798 | 16.23937 | 31 ft | 10 kts | 98° |
| 2026-04-25 15:38 | 38.90787 | 16.24025 | 31 ft | 10 kts | 98° |
| 2026-04-25 15:39 | 38.90777 | 16.24111 | 31 ft | 10 kts | 99° |
| 2026-04-25 15:39 | 38.90787 | 16.24165 | 30 ft | 9 kts | 63° |
| 2026-04-25 15:39 | 38.90821 | 16.24232 | 31 ft | 5 kts | 53° |
| 2026-04-25 15:39 | 38.90853 | 16.24254 | 31 ft | 5 kts | 7° |
| 2026-04-25 15:40 | 38.90872 | 16.24258 | 31 ft | 2 kts | 9° |
| 2026-04-25 15:40 | 38.90882 | 16.24261 | 31 ft | 2 kts | 13° |
| 2026-04-25 15:40 | 38.90901 | 16.24264 | 31 ft | 2 kts | 17° |
| 2026-04-25 15:40 | 38.90903 | 16.24277 | 30 ft | 1 kts | 99° |
| 2026-04-25 15:41 | 38.90901 | 16.24287 | 30 ft | 1 kts | 104° |
| 2026-04-25 15:41 | 38.90899 | 16.24298 | 31 ft | 1 kts | 99° |